sensor_id;sensor_type;location;lat;lon;timestamp;temperature;humidity
6293;DHT22;3179;54.350;10.102;2023-03-01T00:00:09;5.60;99.90
6293;DHT22;3179;54.350;10.102;2023-03-01T00:02:36;5.60;99.90
6293;DHT22;3179;54.350;10.102;2023-03-01T00:05:04;5.60;99.90
6293;DHT22;3179;54.350;10.102;2023-03-01T00:07:34;5.60;99.90
6293;DHT22;3179;54.350;10.102;2023-03-01T00:10:00;5.60;99.90
6293;DHT22;3179;54.350;10.102;2023-03-01T00:12:27;5.60;99.90
6293;DHT22;3179;54.350;10.102;2023-03-01T00:14:54;5.60;99.90
6293;DHT22;3179;54.350;10.102;2023-03-01T00:17:21;5.60;99.90
6293;DHT22;3179;54.350;10.102;2023-03-01T00:19:47;5.60;99.90
6293;DHT22;3179;54.350;10.102;2023-03-01T00:22:14;5.70;99.90
6293;DHT22;3179;54.350;10.102;2023-03-01T00:24:42;5.70;99.90
6293;DHT22;3179;54.350;10.102;2023-03-01T00:27:09;5.70;99.90
6293;DHT22;3179;54.350;10.102;2023-03-01T00:29:36;5.70;99.90
6293;DHT22;3179;54.350;10.102;2023-03-01T00:32:02;5.70;99.90
6293;DHT22;3179;54.350;10.102;2023-03-01T00:34:29;5.70;99.90
6293;DHT22;3179;54.350;10.102;2023-03-01T00:36:56;5.70;99.90
6293;DHT22;3179;54.350;10.102;2023-03-01T00:39:30;5.60;99.90
6293;DHT22;3179;54.350;10.102;2023-03-01T00:41:59;5.70;99.90
6293;DHT22;3179;54.350;10.102;2023-03-01T00:44:26;5.60;99.90
6293;DHT22;3179;54.350;10.102;2023-03-01T00:46:53;5.60;99.90
6293;DHT22;3179;54.350;10.102;2023-03-01T00:49:20;5.60;99.90
6293;DHT22;3179;54.350;10.102;2023-03-01T00:51:49;5.60;99.90
6293;DHT22;3179;54.350;10.102;2023-03-01T00:54:16;5.60;99.90
6293;DHT22;3179;54.350;10.102;2023-03-01T00:56:43;5.60;99.90
6293;DHT22;3179;54.350;10.102;2023-03-01T00:59:11;5.50;99.90
6293;DHT22;3179;54.350;10.102;2023-03-01T01:01:38;5.50;99.90
6293;DHT22;3179;54.350;10.102;2023-03-01T01:04:07;5.40;99.90
6293;DHT22;3179;54.350;10.102;2023-03-01T01:06:35;5.40;99.90
6293;DHT22;3179;54.350;10.102;2023-03-01T01:09:04;5.40;99.90
6293;DHT22;3179;54.350;10.102;2023-03-01T01:11:32;5.40;99.90
6293;DHT22;3179;54.350;10.102;2023-03-01T01:14:00;5.30;99.90
6293;DHT22;3179;54.350;10.102;2023-03-01T01:16:29;5.30;99.90
6293;DHT22;3179;54.350;10.102;2023-03-01T01:18:57;5.30;99.90
6293;DHT22;3179;54.350;10.102;2023-03-01T01:21:25;5.30;99.90
6293;DHT22;3179;54.350;10.102;2023-03-01T01:23:52;5.30;99.90
6293;DHT22;3179;54.350;10.102;2023-03-01T01:26:22;5.30;99.90
6293;DHT22;3179;54.350;10.102;2023-03-01T01:28:50;5.30;99.90
6293;DHT22;3179;54.350;10.102;2023-03-01T01:31:17;5.20;99.90
6293;DHT22;3179;54.350;10.102;2023-03-01T01:33:46;5.20;99.90
6293;DHT22;3179;54.350;10.102;2023-03-01T01:36:13;5.20;99.90
6293;DHT22;3179;54.350;10.102;2023-03-01T01:38:39;5.10;99.90
6293;DHT22;3179;54.350;10.102;2023-03-01T01:41:08;5.10;99.90
6293;DHT22;3179;54.350;10.102;2023-03-01T01:43:38;5.10;99.90
6293;DHT22;3179;54.350;10.102;2023-03-01T01:46:14;5.10;99.90
6293;DHT22;3179;54.350;10.102;2023-03-01T01:48:44;5.10;99.90
6293;DHT22;3179;54.350;10.102;2023-03-01T01:51:19;5.10;99.90
6293;DHT22;3179;54.350;10.102;2023-03-01T01:53:49;5.10;99.90
6293;DHT22;3179;54.350;10.102;2023-03-01T01:56:17;5.10;99.90
6293;DHT22;3179;54.350;10.102;2023-03-01T01:58:45;5.10;99.90
6293;DHT22;3179;54.350;10.102;2023-03-01T02:01:13;5.00;99.90
6293;DHT22;3179;54.350;10.102;2023-03-01T02:03:43;5.00;99.90
6293;DHT22;3179;54.350;10.102;2023-03-01T02:06:19;5.00;99.90
6293;DHT22;3179;54.350;10.102;2023-03-01T02:08:48;5.00;99.90
6293;DHT22;3179;54.350;10.102;2023-03-01T02:11:17;5.00;99.90
6293;DHT22;3179;54.350;10.102;2023-03-01T02:13:46;5.00;99.90
6293;DHT22;3179;54.350;10.102;2023-03-01T02:16:15;5.00;99.90
6293;DHT22;3179;54.350;10.102;2023-03-01T02:18:43;5.00;99.90
6293;DHT22;3179;54.350;10.102;2023-03-01T02:21:27;5.00;99.90
6293;DHT22;3179;54.350;10.102;2023-03-01T02:23:57;5.00;99.90
6293;DHT22;3179;54.350;10.102;2023-03-01T02:26:31;4.90;99.90
6293;DHT22;3179;54.350;10.102;2023-03-01T02:29:01;4.90;99.90
6293;DHT22;3179;54.350;10.102;2023-03-01T02:31:31;4.90;99.90
6293;DHT22;3179;54.350;10.102;2023-03-01T02:34:12;4.90;99.90
6293;DHT22;3179;54.350;10.102;2023-03-01T02:36:41;4.90;99.90
6293;DHT22;3179;54.350;10.102;2023-03-01T02:39:13;4.90;99.90
6293;DHT22;3179;54.350;10.102;2023-03-01T02:41:46;4.80;99.90
6293;DHT22;3179;54.350;10.102;2023-03-01T02:44:15;4.80;99.90
6293;DHT22;3179;54.350;10.102;2023-03-01T02:46:44;4.80;99.90
6293;DHT22;3179;54.350;10.102;2023-03-01T02:49:23;4.80;99.90
6293;DHT22;3179;54.350;10.102;2023-03-01T02:54:40;4.80;99.90
6293;DHT22;3179;54.350;10.102;2023-03-01T02:57:08;4.80;99.90
6293;DHT22;3179;54.350;10.102;2023-03-01T02:59:37;4.80;99.90
6293;DHT22;3179;54.350;10.102;2023-03-01T03:02:06;4.80;99.90
6293;DHT22;3179;54.350;10.102;2023-03-01T03:04:32;4.80;99.90
6293;DHT22;3179;54.350;10.102;2023-03-01T03:06:59;4.80;99.90
6293;DHT22;3179;54.350;10.102;2023-03-01T03:09:26;4.80;99.90
6293;DHT22;3179;54.350;10.102;2023-03-01T03:11:53;4.70;99.90
6293;DHT22;3179;54.350;10.102;2023-03-01T03:14:20;4.70;99.90
6293;DHT22;3179;54.350;10.102;2023-03-01T03:16:50;4.70;99.90
6293;DHT22;3179;54.350;10.102;2023-03-01T03:19:18;4.70;99.90
6293;DHT22;3179;54.350;10.102;2023-03-01T03:21:45;4.70;99.90
6293;DHT22;3179;54.350;10.102;2023-03-01T03:24:12;4.70;99.90
6293;DHT22;3179;54.350;10.102;2023-03-01T03:26:39;4.70;99.90
6293;DHT22;3179;54.350;10.102;2023-03-01T03:29:06;4.70;99.90
6293;DHT22;3179;54.350;10.102;2023-03-01T03:31:33;4.70;99.90
6293;DHT22;3179;54.350;10.102;2023-03-01T03:34:02;4.70;99.90
6293;DHT22;3179;54.350;10.102;2023-03-01T03:36:29;4.70;99.90
6293;DHT22;3179;54.350;10.102;2023-03-01T03:38:55;4.70;99.90
6293;DHT22;3179;54.350;10.102;2023-03-01T03:41:22;4.60;99.90
6293;DHT22;3179;54.350;10.102;2023-03-01T03:43:49;4.60;99.90
6293;DHT22;3179;54.350;10.102;2023-03-01T03:46:16;4.60;99.90
6293;DHT22;3179;54.350;10.102;2023-03-01T03:48:44;4.60;99.90
6293;DHT22;3179;54.350;10.102;2023-03-01T03:51:15;4.60;99.90
6293;DHT22;3179;54.350;10.102;2023-03-01T03:53:42;4.60;99.90
6293;DHT22;3179;54.350;10.102;2023-03-01T03:56:12;4.50;99.90
6293;DHT22;3179;54.350;10.102;2023-03-01T03:58:39;4.60;99.90
6293;DHT22;3179;54.350;10.102;2023-03-01T04:01:06;4.50;99.90
6293;DHT22;3179;54.350;10.102;2023-03-01T04:03:33;4.60;99.90
6293;DHT22;3179;54.350;10.102;2023-03-01T04:06:02;4.50;99.90
6293;DHT22;3179;54.350;10.102;2023-03-01T04:08:31;4.50;99.90
6293;DHT22;3179;54.350;10.102;2023-03-01T04:11:00;4.50;99.90
6293;DHT22;3179;54.350;10.102;2023-03-01T04:13:47;4.50;99.90
6293;DHT22;3179;54.350;10.102;2023-03-01T04:16:14;4.50;99.90
6293;DHT22;3179;54.350;10.102;2023-03-01T04:18:41;4.50;99.90
6293;DHT22;3179;54.350;10.102;2023-03-01T04:21:07;4.50;99.90
6293;DHT22;3179;54.350;10.102;2023-03-01T04:23:36;4.40;99.90
6293;DHT22;3179;54.350;10.102;2023-03-01T04:26:03;4.40;99.90
6293;DHT22;3179;54.350;10.102;2023-03-01T04:28:32;4.40;99.90
6293;DHT22;3179;54.350;10.102;2023-03-01T04:31:03;4.50;99.90
6293;DHT22;3179;54.350;10.102;2023-03-01T04:33:38;4.40;99.90
6293;DHT22;3179;54.350;10.102;2023-03-01T04:36:05;4.40;99.90
6293;DHT22;3179;54.350;10.102;2023-03-01T04:38:36;4.40;99.90
6293;DHT22;3179;54.350;10.102;2023-03-01T04:41:04;4.40;99.90
6293;DHT22;3179;54.350;10.102;2023-03-01T04:43:31;4.40;99.90
6293;DHT22;3179;54.350;10.102;2023-03-01T04:46:03;4.40;99.90
6293;DHT22;3179;54.350;10.102;2023-03-01T04:48:30;4.40;99.90
6293;DHT22;3179;54.350;10.102;2023-03-01T04:50:58;4.40;99.90
6293;DHT22;3179;54.350;10.102;2023-03-01T04:53:25;4.30;99.90
6293;DHT22;3179;54.350;10.102;2023-03-01T04:55:54;4.30;99.90
6293;DHT22;3179;54.350;10.102;2023-03-01T04:58:21;4.30;99.90
6293;DHT22;3179;54.350;10.102;2023-03-01T05:00:47;4.30;99.90
6293;DHT22;3179;54.350;10.102;2023-03-01T05:03:14;4.30;99.90
6293;DHT22;3179;54.350;10.102;2023-03-01T05:05:44;4.30;99.90
6293;DHT22;3179;54.350;10.102;2023-03-01T05:08:11;4.30;99.90
6293;DHT22;3179;54.350;10.102;2023-03-01T05:10:43;4.30;99.90
6293;DHT22;3179;54.350;10.102;2023-03-01T05:13:13;4.30;99.90
6293;DHT22;3179;54.350;10.102;2023-03-01T05:15:46;4.30;99.90
6293;DHT22;3179;54.350;10.102;2023-03-01T05:18:13;4.20;99.90
6293;DHT22;3179;54.350;10.102;2023-03-01T05:20:40;4.20;99.90
6293;DHT22;3179;54.350;10.102;2023-03-01T05:23:07;4.20;99.90
6293;DHT22;3179;54.350;10.102;2023-03-01T05:25:34;4.30;99.90
6293;DHT22;3179;54.350;10.102;2023-03-01T05:28:06;4.20;99.90
6293;DHT22;3179;54.350;10.102;2023-03-01T05:30:34;4.20;99.90
6293;DHT22;3179;54.350;10.102;2023-03-01T05:33:01;4.20;99.90
6293;DHT22;3179;54.350;10.102;2023-03-01T05:35:28;4.20;99.90
6293;DHT22;3179;54.350;10.102;2023-03-01T05:37:58;4.10;99.90
6293;DHT22;3179;54.350;10.102;2023-03-01T05:40:24;4.20;99.90
6293;DHT22;3179;54.350;10.102;2023-03-01T05:42:53;4.20;99.90
6293;DHT22;3179;54.350;10.102;2023-03-01T05:45:21;4.10;99.90
6293;DHT22;3179;54.350;10.102;2023-03-01T05:47:50;4.10;99.90
6293;DHT22;3179;54.350;10.102;2023-03-01T05:50:19;4.10;99.90
6293;DHT22;3179;54.350;10.102;2023-03-01T05:52:47;4.10;99.90
6293;DHT22;3179;54.350;10.102;2023-03-01T05:55:15;4.10;99.90
6293;DHT22;3179;54.350;10.102;2023-03-01T05:57:42;4.10;99.90
6293;DHT22;3179;54.350;10.102;2023-03-01T06:00:11;4.10;99.90
6293;DHT22;3179;54.350;10.102;2023-03-01T06:02:38;4.10;99.90
6293;DHT22;3179;54.350;10.102;2023-03-01T06:05:09;4.10;99.90
6293;DHT22;3179;54.350;10.102;2023-03-01T06:07:36;4.10;99.90
6293;DHT22;3179;54.350;10.102;2023-03-01T06:10:03;4.10;99.90
6293;DHT22;3179;54.350;10.102;2023-03-01T06:12:31;4.10;99.90
6293;DHT22;3179;54.350;10.102;2023-03-01T06:14:58;4.10;99.90
6293;DHT22;3179;54.350;10.102;2023-03-01T06:17:25;4.10;99.90
6293;DHT22;3179;54.350;10.102;2023-03-01T06:19:52;4.10;99.90
6293;DHT22;3179;54.350;10.102;2023-03-01T06:22:20;4.10;99.90
6293;DHT22;3179;54.350;10.102;2023-03-01T06:24:47;4.10;99.90
6293;DHT22;3179;54.350;10.102;2023-03-01T06:27:13;4.10;99.90
6293;DHT22;3179;54.350;10.102;2023-03-01T06:29:40;4.10;99.90
6293;DHT22;3179;54.350;10.102;2023-03-01T06:32:07;4.00;99.90
6293;DHT22;3179;54.350;10.102;2023-03-01T06:34:40;4.00;99.90
6293;DHT22;3179;54.350;10.102;2023-03-01T06:37:07;4.10;99.90
6293;DHT22;3179;54.350;10.102;2023-03-01T06:39:35;4.00;99.90
6293;DHT22;3179;54.350;10.102;2023-03-01T06:42:02;4.00;99.90
6293;DHT22;3179;54.350;10.102;2023-03-01T06:44:29;4.00;99.90
6293;DHT22;3179;54.350;10.102;2023-03-01T06:46:56;4.00;99.90
6293;DHT22;3179;54.350;10.102;2023-03-01T06:49:23;4.00;99.90
6293;DHT22;3179;54.350;10.102;2023-03-01T06:51:50;4.00;99.90
6293;DHT22;3179;54.350;10.102;2023-03-01T06:54:16;4.10;99.90
6293;DHT22;3179;54.350;10.102;2023-03-01T06:56:47;4.10;99.90
6293;DHT22;3179;54.350;10.102;2023-03-01T06:59:15;4.10;99.90
6293;DHT22;3179;54.350;10.102;2023-03-01T07:01:42;4.10;99.90
6293;DHT22;3179;54.350;10.102;2023-03-01T07:04:09;4.10;99.90
6293;DHT22;3179;54.350;10.102;2023-03-01T07:06:35;4.10;99.90
6293;DHT22;3179;54.350;10.102;2023-03-01T07:09:02;4.10;99.90
6293;DHT22;3179;54.350;10.102;2023-03-01T07:11:29;4.10;99.90
6293;DHT22;3179;54.350;10.102;2023-03-01T07:13:57;4.10;99.90
6293;DHT22;3179;54.350;10.102;2023-03-01T07:16:25;4.10;99.90
6293;DHT22;3179;54.350;10.102;2023-03-01T07:18:52;4.10;99.90
6293;DHT22;3179;54.350;10.102;2023-03-01T07:21:19;4.10;99.90
6293;DHT22;3179;54.350;10.102;2023-03-01T07:23:47;4.10;99.90
6293;DHT22;3179;54.350;10.102;2023-03-01T07:26:14;4.10;99.90
6293;DHT22;3179;54.350;10.102;2023-03-01T07:28:41;4.10;99.90
6293;DHT22;3179;54.350;10.102;2023-03-01T07:31:09;4.20;99.90
6293;DHT22;3179;54.350;10.102;2023-03-01T07:33:35;4.10;99.90
6293;DHT22;3179;54.350;10.102;2023-03-01T07:36:03;4.10;99.90
6293;DHT22;3179;54.350;10.102;2023-03-01T07:38:30;4.10;99.90
6293;DHT22;3179;54.350;10.102;2023-03-01T07:40:58;4.20;99.90
6293;DHT22;3179;54.350;10.102;2023-03-01T07:43:26;4.20;99.90
6293;DHT22;3179;54.350;10.102;2023-03-01T07:45:53;4.20;99.90
6293;DHT22;3179;54.350;10.102;2023-03-01T07:48:21;4.30;99.90
6293;DHT22;3179;54.350;10.102;2023-03-01T07:50:47;4.20;99.90
6293;DHT22;3179;54.350;10.102;2023-03-01T07:53:14;4.20;99.90
6293;DHT22;3179;54.350;10.102;2023-03-01T07:55:41;4.30;99.90
6293;DHT22;3179;54.350;10.102;2023-03-01T07:58:08;4.40;99.90
6293;DHT22;3179;54.350;10.102;2023-03-01T08:00:34;4.30;99.90
6293;DHT22;3179;54.350;10.102;2023-03-01T08:03:02;4.20;99.90
6293;DHT22;3179;54.350;10.102;2023-03-01T08:05:30;4.30;99.90
6293;DHT22;3179;54.350;10.102;2023-03-01T08:07:57;4.40;99.90
6293;DHT22;3179;54.350;10.102;2023-03-01T08:10:24;4.40;99.90
6293;DHT22;3179;54.350;10.102;2023-03-01T08:12:51;4.40;99.90
6293;DHT22;3179;54.350;10.102;2023-03-01T08:15:19;4.40;99.90
6293;DHT22;3179;54.350;10.102;2023-03-01T08:17:48;4.40;99.90
6293;DHT22;3179;54.350;10.102;2023-03-01T08:20:15;4.40;99.90
6293;DHT22;3179;54.350;10.102;2023-03-01T08:22:43;4.50;99.90
6293;DHT22;3179;54.350;10.102;2023-03-01T08:25:10;4.50;99.90
6293;DHT22;3179;54.350;10.102;2023-03-01T08:27:37;4.50;99.90
6293;DHT22;3179;54.350;10.102;2023-03-01T08:30:05;4.50;99.90
6293;DHT22;3179;54.350;10.102;2023-03-01T08:32:36;4.50;99.90
6293;DHT22;3179;54.350;10.102;2023-03-01T08:35:03;4.40;99.90
6293;DHT22;3179;54.350;10.102;2023-03-01T08:37:30;4.40;99.90
6293;DHT22;3179;54.350;10.102;2023-03-01T08:39:59;4.50;99.90
6293;DHT22;3179;54.350;10.102;2023-03-01T08:42:26;4.50;99.90
6293;DHT22;3179;54.350;10.102;2023-03-01T08:44:53;4.50;99.90
6293;DHT22;3179;54.350;10.102;2023-03-01T08:47:20;4.50;99.90
6293;DHT22;3179;54.350;10.102;2023-03-01T08:49:48;4.50;99.90
6293;DHT22;3179;54.350;10.102;2023-03-01T08:52:19;4.50;99.90
6293;DHT22;3179;54.350;10.102;2023-03-01T08:54:50;4.50;99.90
6293;DHT22;3179;54.350;10.102;2023-03-01T08:57:18;4.50;99.90
6293;DHT22;3179;54.350;10.102;2023-03-01T08:59:45;4.50;99.90
6293;DHT22;3179;54.350;10.102;2023-03-01T09:02:14;4.40;99.90
6293;DHT22;3179;54.350;10.102;2023-03-01T09:04:41;4.50;99.90
6293;DHT22;3179;54.350;10.102;2023-03-01T09:07:09;4.50;99.90
6293;DHT22;3179;54.350;10.102;2023-03-01T09:09:36;4.50;99.90
6293;DHT22;3179;54.350;10.102;2023-03-01T09:12:04;4.50;99.90
6293;DHT22;3179;54.350;10.102;2023-03-01T09:14:32;4.50;99.90
6293;DHT22;3179;54.350;10.102;2023-03-01T09:16:59;4.40;99.90
6293;DHT22;3179;54.350;10.102;2023-03-01T09:19:28;4.50;99.90
6293;DHT22;3179;54.350;10.102;2023-03-01T09:21:55;4.60;99.90
6293;DHT22;3179;54.350;10.102;2023-03-01T09:24:24;4.60;99.90
6293;DHT22;3179;54.350;10.102;2023-03-01T09:26:53;4.50;99.90
6293;DHT22;3179;54.350;10.102;2023-03-01T09:29:21;4.60;99.90
6293;DHT22;3179;54.350;10.102;2023-03-01T09:31:49;4.70;99.90
6293;DHT22;3179;54.350;10.102;2023-03-01T09:34:16;4.60;99.90
6293;DHT22;3179;54.350;10.102;2023-03-01T09:36:48;4.60;99.90
6293;DHT22;3179;54.350;10.102;2023-03-01T09:39:15;4.50;99.90
6293;DHT22;3179;54.350;10.102;2023-03-01T09:41:46;4.50;99.90
6293;DHT22;3179;54.350;10.102;2023-03-01T09:44:21;4.60;99.90
6293;DHT22;3179;54.350;10.102;2023-03-01T09:46:52;4.70;99.90
6293;DHT22;3179;54.350;10.102;2023-03-01T09:49:20;4.70;99.90
6293;DHT22;3179;54.350;10.102;2023-03-01T09:51:54;4.80;99.90
6293;DHT22;3179;54.350;10.102;2023-03-01T09:54:22;4.80;99.90
6293;DHT22;3179;54.350;10.102;2023-03-01T09:56:58;4.80;99.90
6293;DHT22;3179;54.350;10.102;2023-03-01T09:59:29;4.80;99.90
6293;DHT22;3179;54.350;10.102;2023-03-01T10:02:11;4.90;99.90
6293;DHT22;3179;54.350;10.102;2023-03-01T10:04:46;5.00;99.90
6293;DHT22;3179;54.350;10.102;2023-03-01T10:07:25;5.00;99.90
6293;DHT22;3179;54.350;10.102;2023-03-01T10:09:53;5.00;99.90
6293;DHT22;3179;54.350;10.102;2023-03-01T10:12:23;5.00;99.90
6293;DHT22;3179;54.350;10.102;2023-03-01T10:14:55;5.00;99.90
6293;DHT22;3179;54.350;10.102;2023-03-01T10:17:30;5.00;99.90
6293;DHT22;3179;54.350;10.102;2023-03-01T10:22:48;5.10;99.90
6293;DHT22;3179;54.350;10.102;2023-03-01T10:25:29;5.00;99.90
6293;DHT22;3179;54.350;10.102;2023-03-01T10:28:02;5.00;99.90
6293;DHT22;3179;54.350;10.102;2023-03-01T10:30:38;5.00;99.90
6293;DHT22;3179;54.350;10.102;2023-03-01T10:33:15;5.00;99.90
6293;DHT22;3179;54.350;10.102;2023-03-01T10:35:43;5.10;99.90
6293;DHT22;3179;54.350;10.102;2023-03-01T10:38:12;5.20;99.90
6293;DHT22;3179;54.350;10.102;2023-03-01T10:40:51;5.20;99.90
6293;DHT22;3179;54.350;10.102;2023-03-01T10:43:18;5.30;99.90
6293;DHT22;3179;54.350;10.102;2023-03-01T10:45:46;5.20;99.90
6293;DHT22;3179;54.350;10.102;2023-03-01T10:48:15;5.20;99.90
6293;DHT22;3179;54.350;10.102;2023-03-01T10:50:44;5.30;99.90
6293;DHT22;3179;54.350;10.102;2023-03-01T10:53:26;5.30;99.90
6293;DHT22;3179;54.350;10.102;2023-03-01T10:56:03;5.30;99.90
6293;DHT22;3179;54.350;10.102;2023-03-01T10:58:33;5.40;99.90
6293;DHT22;3179;54.350;10.102;2023-03-01T11:01:02;5.30;99.90
6293;DHT22;3179;54.350;10.102;2023-03-01T11:03:32;5.30;99.90
6293;DHT22;3179;54.350;10.102;2023-03-01T11:06:03;5.30;99.90
6293;DHT22;3179;54.350;10.102;2023-03-01T11:08:41;5.30;99.90
6293;DHT22;3179;54.350;10.102;2023-03-01T11:11:26;5.30;99.90
6293;DHT22;3179;54.350;10.102;2023-03-01T11:13:58;5.40;99.90
6293;DHT22;3179;54.350;10.102;2023-03-01T11:16:34;5.30;99.90
6293;DHT22;3179;54.350;10.102;2023-03-01T11:19:17;5.30;99.90
6293;DHT22;3179;54.350;10.102;2023-03-01T11:21:53;5.40;99.90
6293;DHT22;3179;54.350;10.102;2023-03-01T11:24:26;5.30;99.90
6293;DHT22;3179;54.350;10.102;2023-03-01T11:26:54;5.30;99.90
6293;DHT22;3179;54.350;10.102;2023-03-01T11:29:27;5.30;99.90
6293;DHT22;3179;54.350;10.102;2023-03-01T11:31:59;5.30;99.90
6293;DHT22;3179;54.350;10.102;2023-03-01T11:34:42;5.30;99.90
6293;DHT22;3179;54.350;10.102;2023-03-01T11:37:21;5.30;99.90
6293;DHT22;3179;54.350;10.102;2023-03-01T11:39:54;5.30;99.90
6293;DHT22;3179;54.350;10.102;2023-03-01T11:42:42;5.30;99.90
6293;DHT22;3179;54.350;10.102;2023-03-01T11:45:12;5.40;99.90
6293;DHT22;3179;54.350;10.102;2023-03-01T11:47:53;5.40;99.90
6293;DHT22;3179;54.350;10.102;2023-03-01T11:50:29;5.40;99.90
6293;DHT22;3179;54.350;10.102;2023-03-01T11:53:05;5.50;99.90
6293;DHT22;3179;54.350;10.102;2023-03-01T11:55:46;5.40;99.90
6293;DHT22;3179;54.350;10.102;2023-03-01T11:58:24;5.50;99.90
6293;DHT22;3179;54.350;10.102;2023-03-01T12:01:14;5.50;99.90
6293;DHT22;3179;54.350;10.102;2023-03-01T12:03:58;5.50;99.90
6293;DHT22;3179;54.350;10.102;2023-03-01T12:06:46;5.50;99.90
6293;DHT22;3179;54.350;10.102;2023-03-01T12:09:24;5.60;99.90
6293;DHT22;3179;54.350;10.102;2023-03-01T12:12:09;5.60;99.90
6293;DHT22;3179;54.350;10.102;2023-03-01T12:14:55;5.60;99.90
6293;DHT22;3179;54.350;10.102;2023-03-01T12:17:50;5.60;99.90
6293;DHT22;3179;54.350;10.102;2023-03-01T12:20:26;5.60;99.90
6293;DHT22;3179;54.350;10.102;2023-03-01T12:23:21;5.60;99.90
6293;DHT22;3179;54.350;10.102;2023-03-01T12:25:55;5.60;99.90
6293;DHT22;3179;54.350;10.102;2023-03-01T12:28:51;5.50;99.90
6293;DHT22;3179;54.350;10.102;2023-03-01T12:31:46;5.60;99.90
6293;DHT22;3179;54.350;10.102;2023-03-01T12:34:29;5.60;99.90
6293;DHT22;3179;54.350;10.102;2023-03-01T12:37:14;5.60;99.90
6293;DHT22;3179;54.350;10.102;2023-03-01T12:39:59;5.70;99.90
6293;DHT22;3179;54.350;10.102;2023-03-01T12:42:34;5.70;99.90
6293;DHT22;3179;54.350;10.102;2023-03-01T12:45:21;5.60;99.90
6293;DHT22;3179;54.350;10.102;2023-03-01T12:48:03;5.60;99.90
6293;DHT22;3179;54.350;10.102;2023-03-01T12:50:38;5.60;99.90
6293;DHT22;3179;54.350;10.102;2023-03-01T12:53:15;5.70;99.90
6293;DHT22;3179;54.350;10.102;2023-03-01T12:55:45;5.70;99.90
6293;DHT22;3179;54.350;10.102;2023-03-01T12:58:23;5.70;99.90
6293;DHT22;3179;54.350;10.102;2023-03-01T13:01:01;5.70;99.90
6293;DHT22;3179;54.350;10.102;2023-03-01T13:03:38;5.70;99.90
6293;DHT22;3179;54.350;10.102;2023-03-01T13:06:13;5.80;99.90
6293;DHT22;3179;54.350;10.102;2023-03-01T13:08:48;5.80;99.90
6293;DHT22;3179;54.350;10.102;2023-03-01T13:11:19;5.70;99.90
6293;DHT22;3179;54.350;10.102;2023-03-01T13:13:47;5.70;99.90
6293;DHT22;3179;54.350;10.102;2023-03-01T13:19:10;5.70;99.90
6293;DHT22;3179;54.350;10.102;2023-03-01T13:21:39;5.70;99.90
6293;DHT22;3179;54.350;10.102;2023-03-01T13:24:24;5.70;99.90
6293;DHT22;3179;54.350;10.102;2023-03-01T13:27:23;5.70;99.90
6293;DHT22;3179;54.350;10.102;2023-03-01T13:29:56;5.60;99.90
6293;DHT22;3179;54.350;10.102;2023-03-01T13:32:25;5.60;99.90
6293;DHT22;3179;54.350;10.102;2023-03-01T13:34:58;5.60;99.90
6293;DHT22;3179;54.350;10.102;2023-03-01T13:37:27;5.60;99.90
6293;DHT22;3179;54.350;10.102;2023-03-01T13:39:59;5.50;99.90
6293;DHT22;3179;54.350;10.102;2023-03-01T13:42:40;5.50;99.90
6293;DHT22;3179;54.350;10.102;2023-03-01T13:45:20;5.40;99.90
6293;DHT22;3179;54.350;10.102;2023-03-01T13:47:51;5.40;99.90
6293;DHT22;3179;54.350;10.102;2023-03-01T13:50:21;5.50;99.90
6293;DHT22;3179;54.350;10.102;2023-03-01T13:52:53;5.50;99.90
6293;DHT22;3179;54.350;10.102;2023-03-01T13:55:27;5.50;99.90
6293;DHT22;3179;54.350;10.102;2023-03-01T13:58:00;5.50;99.90
6293;DHT22;3179;54.350;10.102;2023-03-01T14:00:31;5.50;99.90
6293;DHT22;3179;54.350;10.102;2023-03-01T14:03:03;5.60;99.90
6293;DHT22;3179;54.350;10.102;2023-03-01T14:05:31;5.60;99.90
6293;DHT22;3179;54.350;10.102;2023-03-01T14:07:58;5.50;99.90
6293;DHT22;3179;54.350;10.102;2023-03-01T14:10:31;5.40;99.90
6293;DHT22;3179;54.350;10.102;2023-03-01T14:13:13;5.40;99.90
6293;DHT22;3179;54.350;10.102;2023-03-01T14:15:48;5.40;99.90
6293;DHT22;3179;54.350;10.102;2023-03-01T14:18:20;5.40;99.90
6293;DHT22;3179;54.350;10.102;2023-03-01T14:20:49;5.40;99.90
6293;DHT22;3179;54.350;10.102;2023-03-01T14:23:20;5.40;99.90
6293;DHT22;3179;54.350;10.102;2023-03-01T14:25:48;5.40;99.90
6293;DHT22;3179;54.350;10.102;2023-03-01T14:28:19;5.40;99.90
6293;DHT22;3179;54.350;10.102;2023-03-01T14:30:48;5.40;99.90
6293;DHT22;3179;54.350;10.102;2023-03-01T14:33:21;5.30;99.90
6293;DHT22;3179;54.350;10.102;2023-03-01T14:35:57;5.30;99.90
6293;DHT22;3179;54.350;10.102;2023-03-01T14:38:31;5.40;99.90
6293;DHT22;3179;54.350;10.102;2023-03-01T14:41:00;5.40;99.90
6293;DHT22;3179;54.350;10.102;2023-03-01T14:43:30;5.40;99.90
6293;DHT22;3179;54.350;10.102;2023-03-01T14:45:57;5.40;99.90
6293;DHT22;3179;54.350;10.102;2023-03-01T14:48:25;5.50;99.90
6293;DHT22;3179;54.350;10.102;2023-03-01T14:50:53;5.40;99.90
6293;DHT22;3179;54.350;10.102;2023-03-01T14:53:23;5.40;99.90
6293;DHT22;3179;54.350;10.102;2023-03-01T14:55:52;5.40;99.90
6293;DHT22;3179;54.350;10.102;2023-03-01T14:58:22;5.40;99.90
6293;DHT22;3179;54.350;10.102;2023-03-01T15:00:53;5.40;99.90
6293;DHT22;3179;54.350;10.102;2023-03-01T15:03:26;5.40;99.90
6293;DHT22;3179;54.350;10.102;2023-03-01T15:05:54;5.40;99.90
6293;DHT22;3179;54.350;10.102;2023-03-01T15:08:23;5.40;99.90
6293;DHT22;3179;54.350;10.102;2023-03-01T15:11:00;5.50;99.90
6293;DHT22;3179;54.350;10.102;2023-03-01T15:13:31;5.40;99.90
6293;DHT22;3179;54.350;10.102;2023-03-01T15:16:06;5.40;99.90
6293;DHT22;3179;54.350;10.102;2023-03-01T15:18:35;5.40;99.90
6293;DHT22;3179;54.350;10.102;2023-03-01T15:21:07;5.40;99.90
6293;DHT22;3179;54.350;10.102;2023-03-01T15:23:38;5.50;99.90
6293;DHT22;3179;54.350;10.102;2023-03-01T15:26:06;5.50;99.90
6293;DHT22;3179;54.350;10.102;2023-03-01T15:28:39;5.50;99.90
6293;DHT22;3179;54.350;10.102;2023-03-01T15:31:22;5.50;99.90
6293;DHT22;3179;54.350;10.102;2023-03-01T15:33:50;5.50;99.90
6293;DHT22;3179;54.350;10.102;2023-03-01T15:36:36;5.50;99.90
6293;DHT22;3179;54.350;10.102;2023-03-01T15:39:05;5.50;99.90
6293;DHT22;3179;54.350;10.102;2023-03-01T15:41:50;5.50;99.90
6293;DHT22;3179;54.350;10.102;2023-03-01T15:44:25;5.50;99.90
6293;DHT22;3179;54.350;10.102;2023-03-01T15:46:54;5.50;99.90
6293;DHT22;3179;54.350;10.102;2023-03-01T15:49:33;5.50;99.90
6293;DHT22;3179;54.350;10.102;2023-03-01T15:52:02;5.50;99.90
6293;DHT22;3179;54.350;10.102;2023-03-01T15:54:29;5.50;99.90
6293;DHT22;3179;54.350;10.102;2023-03-01T15:56:56;5.50;99.90
6293;DHT22;3179;54.350;10.102;2023-03-01T15:59:23;5.50;99.90
6293;DHT22;3179;54.350;10.102;2023-03-01T16:01:50;5.50;99.90
6293;DHT22;3179;54.350;10.102;2023-03-01T16:04:18;5.50;99.90
6293;DHT22;3179;54.350;10.102;2023-03-01T16:06:49;5.40;99.90
6293;DHT22;3179;54.350;10.102;2023-03-01T16:09:20;5.40;99.90
6293;DHT22;3179;54.350;10.102;2023-03-01T16:11:48;5.40;99.90
6293;DHT22;3179;54.350;10.102;2023-03-01T16:14:15;5.40;99.90
6293;DHT22;3179;54.350;10.102;2023-03-01T16:16:42;5.50;99.90
6293;DHT22;3179;54.350;10.102;2023-03-01T16:19:09;5.40;99.90
6293;DHT22;3179;54.350;10.102;2023-03-01T16:21:38;5.50;99.90
6293;DHT22;3179;54.350;10.102;2023-03-01T16:24:05;5.50;99.90
6293;DHT22;3179;54.350;10.102;2023-03-01T16:26:32;5.50;99.90
6293;DHT22;3179;54.350;10.102;2023-03-01T16:28:59;5.50;99.90
6293;DHT22;3179;54.350;10.102;2023-03-01T16:31:26;5.40;99.90